sensor_id;sensor_type;location;lat;lon;timestamp;temperature;humidity
26541;DHT22;14206;50.202;10.948;2024-02-26T00:02:11;3.10;96.60
26541;DHT22;14206;50.202;10.948;2024-02-26T00:04:38;3.10;96.60
26541;DHT22;14206;50.202;10.948;2024-02-26T00:07:04;3.10;96.60
26541;DHT22;14206;50.202;10.948;2024-02-26T00:09:31;3.10;96.60
26541;DHT22;14206;50.202;10.948;2024-02-26T00:11:59;3.10;96.60
26541;DHT22;14206;50.202;10.948;2024-02-26T00:14:26;3.10;96.60
26541;DHT22;14206;50.202;10.948;2024-02-26T00:16:53;3.10;96.60
26541;DHT22;14206;50.202;10.948;2024-02-26T00:19:20;3.10;96.60
26541;DHT22;14206;50.202;10.948;2024-02-26T00:21:47;3.10;96.60
26541;DHT22;14206;50.202;10.948;2024-02-26T00:24:14;3.10;96.60
26541;DHT22;14206;50.202;10.948;2024-02-26T00:26:41;3.10;96.60
26541;DHT22;14206;50.202;10.948;2024-02-26T00:29:08;3.10;96.60
26541;DHT22;14206;50.202;10.948;2024-02-26T00:31:36;3.10;96.60
26541;DHT22;14206;50.202;10.948;2024-02-26T00:34:05;3.10;96.60
26541;DHT22;14206;50.202;10.948;2024-02-26T00:36:33;3.10;96.60
26541;DHT22;14206;50.202;10.948;2024-02-26T00:39:00;3.10;96.60
26541;DHT22;14206;50.202;10.948;2024-02-26T00:41:27;3.10;96.60
26541;DHT22;14206;50.202;10.948;2024-02-26T00:43:54;3.10;96.60
26541;DHT22;14206;50.202;10.948;2024-02-26T00:46:21;3.10;96.60
26541;DHT22;14206;50.202;10.948;2024-02-26T00:48:47;3.00;96.60
26541;DHT22;14206;50.202;10.948;2024-02-26T00:51:15;3.00;96.60
26541;DHT22;14206;50.202;10.948;2024-02-26T00:53:42;3.00;96.60
26541;DHT22;14206;50.202;10.948;2024-02-26T00:56:09;3.00;96.60
26541;DHT22;14206;50.202;10.948;2024-02-26T00:58:36;3.00;96.60
26541;DHT22;14206;50.202;10.948;2024-02-26T01:01:03;3.00;96.60
26541;DHT22;14206;50.202;10.948;2024-02-26T01:03:30;3.00;96.60
26541;DHT22;14206;50.202;10.948;2024-02-26T01:05:57;2.90;96.60
26541;DHT22;14206;50.202;10.948;2024-02-26T01:08:25;2.90;96.60
26541;DHT22;14206;50.202;10.948;2024-02-26T01:10:52;2.90;96.60
26541;DHT22;14206;50.202;10.948;2024-02-26T01:13:19;2.90;96.60
26541;DHT22;14206;50.202;10.948;2024-02-26T01:15:46;2.80;96.60
26541;DHT22;14206;50.202;10.948;2024-02-26T01:18:13;2.80;96.60
26541;DHT22;14206;50.202;10.948;2024-02-26T01:20:40;2.80;96.60
26541;DHT22;14206;50.202;10.948;2024-02-26T01:23:07;2.80;96.60
26541;DHT22;14206;50.202;10.948;2024-02-26T01:25:34;2.80;96.60
26541;DHT22;14206;50.202;10.948;2024-02-26T01:28:01;2.80;96.60
26541;DHT22;14206;50.202;10.948;2024-02-26T01:30:28;2.80;96.60
26541;DHT22;14206;50.202;10.948;2024-02-26T01:32:57;2.80;96.60
26541;DHT22;14206;50.202;10.948;2024-02-26T01:35:24;2.80;96.60
26541;DHT22;14206;50.202;10.948;2024-02-26T01:37:50;2.80;96.60
26541;DHT22;14206;50.202;10.948;2024-02-26T01:40:17;2.80;96.60
26541;DHT22;14206;50.202;10.948;2024-02-26T01:42:46;2.80;96.60
26541;DHT22;14206;50.202;10.948;2024-02-26T01:45:17;2.80;96.60
26541;DHT22;14206;50.202;10.948;2024-02-26T01:47:52;2.70;96.60
26541;DHT22;14206;50.202;10.948;2024-02-26T01:50:20;2.70;96.60
26541;DHT22;14206;50.202;10.948;2024-02-26T01:52:50;2.70;96.60
26541;DHT22;14206;50.202;10.948;2024-02-26T01:55:20;2.70;96.60
26541;DHT22;14206;50.202;10.948;2024-02-26T01:57:50;2.60;96.60
26541;DHT22;14206;50.202;10.948;2024-02-26T02:00:19;2.60;96.60
26541;DHT22;14206;50.202;10.948;2024-02-26T02:02:48;2.60;96.60
26541;DHT22;14206;50.202;10.948;2024-02-26T02:05:16;2.60;96.60
26541;DHT22;14206;50.202;10.948;2024-02-26T02:07:47;2.60;96.60
26541;DHT22;14206;50.202;10.948;2024-02-26T02:10:15;2.70;96.60
26541;DHT22;14206;50.202;10.948;2024-02-26T02:12:43;2.70;96.60
26541;DHT22;14206;50.202;10.948;2024-02-26T02:15:10;2.80;96.60
26541;DHT22;14206;50.202;10.948;2024-02-26T02:17:37;2.80;96.60
26541;DHT22;14206;50.202;10.948;2024-02-26T02:20:08;2.80;96.60
26541;DHT22;14206;50.202;10.948;2024-02-26T02:22:35;2.90;96.60
26541;DHT22;14206;50.202;10.948;2024-02-26T02:25:02;2.90;96.60
26541;DHT22;14206;50.202;10.948;2024-02-26T02:27:30;3.00;96.60
26541;DHT22;14206;50.202;10.948;2024-02-26T02:29:57;3.00;96.60
26541;DHT22;14206;50.202;10.948;2024-02-26T02:32:25;3.00;96.60
26541;DHT22;14206;50.202;10.948;2024-02-26T02:34:53;3.10;96.60
26541;DHT22;14206;50.202;10.948;2024-02-26T02:37:20;3.10;96.60
26541;DHT22;14206;50.202;10.948;2024-02-26T02:39:47;3.10;96.60
26541;DHT22;14206;50.202;10.948;2024-02-26T02:42:14;3.10;96.60
26541;DHT22;14206;50.202;10.948;2024-02-26T02:44:41;3.10;96.60
26541;DHT22;14206;50.202;10.948;2024-02-26T02:47:08;3.10;96.60
26541;DHT22;14206;50.202;10.948;2024-02-26T02:49:35;3.10;96.60
26541;DHT22;14206;50.202;10.948;2024-02-26T02:52:03;3.10;96.60
26541;DHT22;14206;50.202;10.948;2024-02-26T02:54:29;3.20;96.60
26541;DHT22;14206;50.202;10.948;2024-02-26T02:56:56;3.20;96.60
26541;DHT22;14206;50.202;10.948;2024-02-26T02:59:23;3.20;96.60
26541;DHT22;14206;50.202;10.948;2024-02-26T03:01:50;3.20;96.60
26541;DHT22;14206;50.202;10.948;2024-02-26T03:04:17;3.20;96.60
26541;DHT22;14206;50.202;10.948;2024-02-26T03:06:44;3.20;96.60
26541;DHT22;14206;50.202;10.948;2024-02-26T03:09:11;3.20;96.60
26541;DHT22;14206;50.202;10.948;2024-02-26T03:11:38;3.20;96.60
26541;DHT22;14206;50.202;10.948;2024-02-26T03:14:06;3.20;96.60
26541;DHT22;14206;50.202;10.948;2024-02-26T03:16:33;3.20;96.60
26541;DHT22;14206;50.202;10.948;2024-02-26T03:19:00;3.30;96.60
26541;DHT22;14206;50.202;10.948;2024-02-26T03:21:27;3.40;96.60
26541;DHT22;14206;50.202;10.948;2024-02-26T03:23:55;3.40;96.60
26541;DHT22;14206;50.202;10.948;2024-02-26T03:26:22;3.50;96.60
26541;DHT22;14206;50.202;10.948;2024-02-26T03:28:49;3.60;96.60
26541;DHT22;14206;50.202;10.948;2024-02-26T03:31:15;3.70;96.60
26541;DHT22;14206;50.202;10.948;2024-02-26T03:33:42;3.70;96.60
26541;DHT22;14206;50.202;10.948;2024-02-26T03:36:09;3.80;96.60
26541;DHT22;14206;50.202;10.948;2024-02-26T03:38:37;3.80;96.60
26541;DHT22;14206;50.202;10.948;2024-02-26T03:41:04;3.90;96.60
26541;DHT22;14206;50.202;10.948;2024-02-26T03:43:31;3.90;96.60
26541;DHT22;14206;50.202;10.948;2024-02-26T03:45:58;3.90;96.60
26541;DHT22;14206;50.202;10.948;2024-02-26T03:48:25;3.90;96.60
26541;DHT22;14206;50.202;10.948;2024-02-26T03:50:52;3.90;96.60
26541;DHT22;14206;50.202;10.948;2024-02-26T03:53:19;3.90;96.60
26541;DHT22;14206;50.202;10.948;2024-02-26T03:55:46;3.80;96.60
26541;DHT22;14206;50.202;10.948;2024-02-26T03:58:13;3.80;96.60
26541;DHT22;14206;50.202;10.948;2024-02-26T04:00:40;3.80;96.60
26541;DHT22;14206;50.202;10.948;2024-02-26T04:03:07;3.80;96.60
26541;DHT22;14206;50.202;10.948;2024-02-26T04:05:37;3.80;96.60
26541;DHT22;14206;50.202;10.948;2024-02-26T04:08:07;3.90;96.60
26541;DHT22;14206;50.202;10.948;2024-02-26T04:10:34;3.90;96.60
26541;DHT22;14206;50.202;10.948;2024-02-26T04:13:07;3.90;96.60
26541;DHT22;14206;50.202;10.948;2024-02-26T04:15:35;3.90;96.60
26541;DHT22;14206;50.202;10.948;2024-02-26T04:18:04;3.80;96.60
26541;DHT22;14206;50.202;10.948;2024-02-26T04:20:31;3.80;96.60
26541;DHT22;14206;50.202;10.948;2024-02-26T04:22:58;3.80;96.60
26541;DHT22;14206;50.202;10.948;2024-02-26T04:25:25;3.90;96.60
26541;DHT22;14206;50.202;10.948;2024-02-26T04:27:51;3.90;96.60
26541;DHT22;14206;50.202;10.948;2024-02-26T04:30:18;3.90;96.60
26541;DHT22;14206;50.202;10.948;2024-02-26T04:32:45;3.90;96.60
26541;DHT22;14206;50.202;10.948;2024-02-26T04:35:12;3.90;96.60
26541;DHT22;14206;50.202;10.948;2024-02-26T04:37:39;3.90;96.60
26541;DHT22;14206;50.202;10.948;2024-02-26T04:40:07;3.90;96.60
26541;DHT22;14206;50.202;10.948;2024-02-26T04:42:34;4.00;96.60
26541;DHT22;14206;50.202;10.948;2024-02-26T04:45:01;4.00;96.60
26541;DHT22;14206;50.202;10.948;2024-02-26T04:47:28;4.00;96.60
26541;DHT22;14206;50.202;10.948;2024-02-26T04:49:56;4.00;96.60
26541;DHT22;14206;50.202;10.948;2024-02-26T04:52:23;4.00;96.60
26541;DHT22;14206;50.202;10.948;2024-02-26T04:54:51;4.00;96.60
26541;DHT22;14206;50.202;10.948;2024-02-26T04:57:18;4.00;96.60
26541;DHT22;14206;50.202;10.948;2024-02-26T04:59:45;4.00;96.60
26541;DHT22;14206;50.202;10.948;2024-02-26T05:02:13;3.90;96.60
26541;DHT22;14206;50.202;10.948;2024-02-26T05:04:41;3.80;96.60
26541;DHT22;14206;50.202;10.948;2024-02-26T05:07:07;3.70;96.60
26541;DHT22;14206;50.202;10.948;2024-02-26T05:09:34;3.70;96.60
26541;DHT22;14206;50.202;10.948;2024-02-26T05:12:02;3.60;96.60
26541;DHT22;14206;50.202;10.948;2024-02-26T05:14:29;3.60;96.60
26541;DHT22;14206;50.202;10.948;2024-02-26T05:16:55;3.60;96.60
26541;DHT22;14206;50.202;10.948;2024-02-26T05:19:22;3.60;96.60
26541;DHT22;14206;50.202;10.948;2024-02-26T05:21:50;3.70;96.60
26541;DHT22;14206;50.202;10.948;2024-02-26T05:24:17;3.70;96.60
26541;DHT22;14206;50.202;10.948;2024-02-26T05:26:45;3.70;96.60
26541;DHT22;14206;50.202;10.948;2024-02-26T05:29:12;3.80;96.60
26541;DHT22;14206;50.202;10.948;2024-02-26T05:31:41;3.80;96.60
26541;DHT22;14206;50.202;10.948;2024-02-26T05:34:08;3.90;96.60
26541;DHT22;14206;50.202;10.948;2024-02-26T05:36:37;3.90;96.60
26541;DHT22;14206;50.202;10.948;2024-02-26T05:39:05;3.90;96.60
26541;DHT22;14206;50.202;10.948;2024-02-26T05:41:32;4.00;96.60
26541;DHT22;14206;50.202;10.948;2024-02-26T05:43:59;4.00;96.60
26541;DHT22;14206;50.202;10.948;2024-02-26T05:46:26;4.10;96.60
26541;DHT22;14206;50.202;10.948;2024-02-26T05:48:54;4.10;96.60
26541;DHT22;14206;50.202;10.948;2024-02-26T05:51:21;4.20;96.60
26541;DHT22;14206;50.202;10.948;2024-02-26T05:53:48;4.20;96.60
26541;DHT22;14206;50.202;10.948;2024-02-26T05:56:24;4.20;96.60
26541;DHT22;14206;50.202;10.948;2024-02-26T05:58:51;4.30;96.60
26541;DHT22;14206;50.202;10.948;2024-02-26T06:01:19;4.30;96.60
26541;DHT22;14206;50.202;10.948;2024-02-26T06:03:46;4.30;96.60
26541;DHT22;14206;50.202;10.948;2024-02-26T06:06:13;4.30;96.60
26541;DHT22;14206;50.202;10.948;2024-02-26T06:08:42;4.30;96.60
26541;DHT22;14206;50.202;10.948;2024-02-26T06:11:09;4.30;96.60
26541;DHT22;14206;50.202;10.948;2024-02-26T06:13:36;4.40;96.60
26541;DHT22;14206;50.202;10.948;2024-02-26T06:16:03;4.40;96.60
26541;DHT22;14206;50.202;10.948;2024-02-26T06:18:36;4.50;96.60
26541;DHT22;14206;50.202;10.948;2024-02-26T06:21:04;4.50;96.60
26541;DHT22;14206;50.202;10.948;2024-02-26T06:23:31;4.50;96.60
26541;DHT22;14206;50.202;10.948;2024-02-26T06:25:57;4.50;96.60
26541;DHT22;14206;50.202;10.948;2024-02-26T06:28:24;4.60;96.60
26541;DHT22;14206;50.202;10.948;2024-02-26T06:30:51;4.60;96.50
26541;DHT22;14206;50.202;10.948;2024-02-26T06:33:19;4.60;96.60
26541;DHT22;14206;50.202;10.948;2024-02-26T06:35:46;4.60;96.60
26541;DHT22;14206;50.202;10.948;2024-02-26T06:38:13;4.70;96.60
26541;DHT22;14206;50.202;10.948;2024-02-26T06:40:40;4.80;96.30
26541;DHT22;14206;50.202;10.948;2024-02-26T06:43:07;4.80;96.10
26541;DHT22;14206;50.202;10.948;2024-02-26T06:45:34;4.80;96.00
26541;DHT22;14206;50.202;10.948;2024-02-26T06:48:01;4.80;96.00
26541;DHT22;14206;50.202;10.948;2024-02-26T06:50:29;4.90;96.00
26541;DHT22;14206;50.202;10.948;2024-02-26T06:52:56;4.90;96.10
26541;DHT22;14206;50.202;10.948;2024-02-26T06:55:23;4.90;96.00
26541;DHT22;14206;50.202;10.948;2024-02-26T06:57:49;5.00;95.90
26541;DHT22;14206;50.202;10.948;2024-02-26T07:00:16;5.00;96.00
26541;DHT22;14206;50.202;10.948;2024-02-26T07:02:44;5.00;95.90
26541;DHT22;14206;50.202;10.948;2024-02-26T07:05:11;5.10;96.10
26541;DHT22;14206;50.202;10.948;2024-02-26T07:07:39;5.10;96.10
26541;DHT22;14206;50.202;10.948;2024-02-26T07:10:06;5.20;95.90
26541;DHT22;14206;50.202;10.948;2024-02-26T07:12:33;5.20;96.00
26541;DHT22;14206;50.202;10.948;2024-02-26T07:15:00;5.30;95.60
26541;DHT22;14206;50.202;10.948;2024-02-26T07:17:28;5.30;95.30
26541;DHT22;14206;50.202;10.948;2024-02-26T07:19:55;5.40;95.10
26541;DHT22;14206;50.202;10.948;2024-02-26T07:22:21;5.40;94.90
26541;DHT22;14206;50.202;10.948;2024-02-26T07:24:48;5.50;95.00
26541;DHT22;14206;50.202;10.948;2024-02-26T07:27:15;5.50;95.00
26541;DHT22;14206;50.202;10.948;2024-02-26T07:29:44;5.50;94.60
26541;DHT22;14206;50.202;10.948;2024-02-26T07:32:11;5.60;94.60
26541;DHT22;14206;50.202;10.948;2024-02-26T07:34:38;5.70;94.40
26541;DHT22;14206;50.202;10.948;2024-02-26T07:37:08;5.80;93.90
26541;DHT22;14206;50.202;10.948;2024-02-26T07:39:35;5.80;93.90
26541;DHT22;14206;50.202;10.948;2024-02-26T07:42:03;5.90;94.20
26541;DHT22;14206;50.202;10.948;2024-02-26T07:44:31;6.00;94.30
26541;DHT22;14206;50.202;10.948;2024-02-26T07:46:58;6.10;93.70
26541;DHT22;14206;50.202;10.948;2024-02-26T07:49:25;6.30;93.60
26541;DHT22;14206;50.202;10.948;2024-02-26T07:51:52;6.40;93.90
26541;DHT22;14206;50.202;10.948;2024-02-26T07:54:18;6.50;93.20
26541;DHT22;14206;50.202;10.948;2024-02-26T07:56:46;6.50;93.10
26541;DHT22;14206;50.202;10.948;2024-02-26T07:59:13;6.60;92.70
26541;DHT22;14206;50.202;10.948;2024-02-26T08:01:40;6.60;92.40
26541;DHT22;14206;50.202;10.948;2024-02-26T08:04:08;6.70;92.40
26541;DHT22;14206;50.202;10.948;2024-02-26T08:06:35;6.70;92.50
26541;DHT22;14206;50.202;10.948;2024-02-26T08:09:04;6.80;92.30
26541;DHT22;14206;50.202;10.948;2024-02-26T08:11:31;6.80;92.50
26541;DHT22;14206;50.202;10.948;2024-02-26T08:13:58;6.80;92.00
26541;DHT22;14206;50.202;10.948;2024-02-26T08:16:25;6.90;91.80
26541;DHT22;14206;50.202;10.948;2024-02-26T08:18:53;6.90;92.00
26541;DHT22;14206;50.202;10.948;2024-02-26T08:21:20;6.90;91.60
26541;DHT22;14206;50.202;10.948;2024-02-26T08:23:47;6.90;91.50
26541;DHT22;14206;50.202;10.948;2024-02-26T08:26:14;6.90;91.60
26541;DHT22;14206;50.202;10.948;2024-02-26T08:28:41;6.90;91.80
26541;DHT22;14206;50.202;10.948;2024-02-26T08:31:08;6.90;91.70
26541;DHT22;14206;50.202;10.948;2024-02-26T08:33:35;7.00;91.60
26541;DHT22;14206;50.202;10.948;2024-02-26T08:36:06;7.00;91.80
26541;DHT22;14206;50.202;10.948;2024-02-26T08:38:33;7.10;90.90
26541;DHT22;14206;50.202;10.948;2024-02-26T08:41:02;7.20;91.30
26541;DHT22;14206;50.202;10.948;2024-02-26T08:43:32;7.20;90.60
26541;DHT22;14206;50.202;10.948;2024-02-26T08:45:58;7.30;90.80
26541;DHT22;14206;50.202;10.948;2024-02-26T08:48:25;7.40;91.10
26541;DHT22;14206;50.202;10.948;2024-02-26T08:50:53;7.50;90.50
26541;DHT22;14206;50.202;10.948;2024-02-26T08:53:20;7.70;89.60
26541;DHT22;14206;50.202;10.948;2024-02-26T08:55:57;7.80;89.30
26541;DHT22;14206;50.202;10.948;2024-02-26T08:58:24;7.90;89.20
26541;DHT22;14206;50.202;10.948;2024-02-26T09:00:51;8.00;89.30
26541;DHT22;14206;50.202;10.948;2024-02-26T09:03:18;8.10;89.20
26541;DHT22;14206;50.202;10.948;2024-02-26T09:05:45;8.20;88.40
26541;DHT22;14206;50.202;10.948;2024-02-26T09:08:11;8.30;87.90
26541;DHT22;14206;50.202;10.948;2024-02-26T09:10:39;8.40;87.80
26541;DHT22;14206;50.202;10.948;2024-02-26T09:13:06;8.40;86.90
26541;DHT22;14206;50.202;10.948;2024-02-26T09:15:34;8.40;87.10
26541;DHT22;14206;50.202;10.948;2024-02-26T09:18:00;8.60;87.60
26541;DHT22;14206;50.202;10.948;2024-02-26T09:20:28;8.70;86.60
26541;DHT22;14206;50.202;10.948;2024-02-26T09:22:55;8.80;86.40
26541;DHT22;14206;50.202;10.948;2024-02-26T09:25:22;8.90;86.40
26541;DHT22;14206;50.202;10.948;2024-02-26T09:27:49;9.10;86.50
26541;DHT22;14206;50.202;10.948;2024-02-26T09:30:16;9.20;85.60
26541;DHT22;14206;50.202;10.948;2024-02-26T09:32:46;9.30;85.50
26541;DHT22;14206;50.202;10.948;2024-02-26T09:35:15;9.40;85.50
26541;DHT22;14206;50.202;10.948;2024-02-26T09:37:42;9.50;85.40
26541;DHT22;14206;50.202;10.948;2024-02-26T09:40:11;9.60;84.00
26541;DHT22;14206;50.202;10.948;2024-02-26T09:42:44;9.80;84.40
26541;DHT22;14206;50.202;10.948;2024-02-26T09:45:17;9.80;83.60
26541;DHT22;14206;50.202;10.948;2024-02-26T09:47:44;9.90;83.60
26541;DHT22;14206;50.202;10.948;2024-02-26T09:50:12;9.90;83.30
26541;DHT22;14206;50.202;10.948;2024-02-26T09:52:41;9.90;82.70
26541;DHT22;14206;50.202;10.948;2024-02-26T09:55:09;9.90;83.90
26541;DHT22;14206;50.202;10.948;2024-02-26T09:57:37;10.00;83.00
26541;DHT22;14206;50.202;10.948;2024-02-26T10:00:09;10.10;83.10
26541;DHT22;14206;50.202;10.948;2024-02-26T10:02:38;10.30;83.10
26541;DHT22;14206;50.202;10.948;2024-02-26T10:05:07;10.40;82.40
26541;DHT22;14206;50.202;10.948;2024-02-26T10:07:37;10.50;82.00
26541;DHT22;14206;50.202;10.948;2024-02-26T10:10:04;10.60;81.60
26541;DHT22;14206;50.202;10.948;2024-02-26T10:12:32;10.70;81.00
26541;DHT22;14206;50.202;10.948;2024-02-26T10:14:59;10.70;79.90
26541;DHT22;14206;50.202;10.948;2024-02-26T10:17:26;10.70;80.60
26541;DHT22;14206;50.202;10.948;2024-02-26T10:19:53;10.80;81.60
26541;DHT22;14206;50.202;10.948;2024-02-26T10:22:23;11.00;80.40
26541;DHT22;14206;50.202;10.948;2024-02-26T10:24:50;11.00;79.70
26541;DHT22;14206;50.202;10.948;2024-02-26T10:27:17;10.90;78.70
26541;DHT22;14206;50.202;10.948;2024-02-26T10:29:45;10.80;79.70
26541;DHT22;14206;50.202;10.948;2024-02-26T10:32:14;10.80;79.70
26541;DHT22;14206;50.202;10.948;2024-02-26T10:34:40;10.80;80.60
26541;DHT22;14206;50.202;10.948;2024-02-26T10:37:09;10.90;80.00
26541;DHT22;14206;50.202;10.948;2024-02-26T10:39:36;10.90;78.90
26541;DHT22;14206;50.202;10.948;2024-02-26T10:42:04;10.90;79.50
26541;DHT22;14206;50.202;10.948;2024-02-26T10:44:36;11.10;79.00
26541;DHT22;14206;50.202;10.948;2024-02-26T10:47:03;11.30;78.80
26541;DHT22;14206;50.202;10.948;2024-02-26T10:49:30;11.50;78.50
26541;DHT22;14206;50.202;10.948;2024-02-26T10:51:58;11.70;77.70
26541;DHT22;14206;50.202;10.948;2024-02-26T10:54:29;12.10;77.40
26541;DHT22;14206;50.202;10.948;2024-02-26T10:56:57;12.60;76.10
26541;DHT22;14206;50.202;10.948;2024-02-26T10:59:25;13.50;74.50
26541;DHT22;14206;50.202;10.948;2024-02-26T11:01:52;14.30;72.90
26541;DHT22;14206;50.202;10.948;2024-02-26T11:04:21;15.30;72.70
26541;DHT22;14206;50.202;10.948;2024-02-26T11:06:49;15.70;68.40
26541;DHT22;14206;50.202;10.948;2024-02-26T11:09:17;15.60;68.60
26541;DHT22;14206;50.202;10.948;2024-02-26T11:11:45;15.30;68.80
26541;DHT22;14206;50.202;10.948;2024-02-26T11:14:14;15.10;69.40
26541;DHT22;14206;50.202;10.948;2024-02-26T11:16:41;14.90;69.20
26541;DHT22;14206;50.202;10.948;2024-02-26T11:19:10;14.80;69.50
26541;DHT22;14206;50.202;10.948;2024-02-26T11:21:39;14.90;70.30
26541;DHT22;14206;50.202;10.948;2024-02-26T11:24:11;14.90;69.30
26541;DHT22;14206;50.202;10.948;2024-02-26T11:26:53;14.80;68.70
26541;DHT22;14206;50.202;10.948;2024-02-26T11:29:37;14.80;69.80
26541;DHT22;14206;50.202;10.948;2024-02-26T11:32:05;14.90;68.90
26541;DHT22;14206;50.202;10.948;2024-02-26T11:34:33;14.80;68.70
26541;DHT22;14206;50.202;10.948;2024-02-26T11:37:30;14.90;68.70
26541;DHT22;14206;50.202;10.948;2024-02-26T11:39:59;14.90;68.30
26541;DHT22;14206;50.202;10.948;2024-02-26T11:42:29;14.90;68.90
26541;DHT22;14206;50.202;10.948;2024-02-26T11:44:56;14.90;68.90
26541;DHT22;14206;50.202;10.948;2024-02-26T11:47:27;14.80;68.80
26541;DHT22;14206;50.202;10.948;2024-02-26T11:49:54;14.80;68.90
26541;DHT22;14206;50.202;10.948;2024-02-26T11:52:21;14.60;69.40
26541;DHT22;14206;50.202;10.948;2024-02-26T11:54:49;14.60;69.40
26541;DHT22;14206;50.202;10.948;2024-02-26T11:57:30;14.60;68.70
26541;DHT22;14206;50.202;10.948;2024-02-26T12:00:18;14.60;69.30
26541;DHT22;14206;50.202;10.948;2024-02-26T12:02:50;14.50;69.40
26541;DHT22;14206;50.202;10.948;2024-02-26T12:05:25;14.50;70.50
26541;DHT22;14206;50.202;10.948;2024-02-26T12:07:55;14.50;70.20
26541;DHT22;14206;50.202;10.948;2024-02-26T12:10:38;14.50;70.60
26541;DHT22;14206;50.202;10.948;2024-02-26T12:13:14;14.50;70.80
26541;DHT22;14206;50.202;10.948;2024-02-26T12:15:56;14.50;70.70
26541;DHT22;14206;50.202;10.948;2024-02-26T12:18:24;14.50;71.10
26541;DHT22;14206;50.202;10.948;2024-02-26T12:21:04;14.40;70.50
26541;DHT22;14206;50.202;10.948;2024-02-26T12:23:31;14.30;70.60
26541;DHT22;14206;50.202;10.948;2024-02-26T12:25:59;14.10;71.00
26541;DHT22;14206;50.202;10.948;2024-02-26T12:28:29;14.00;70.70
26541;DHT22;14206;50.202;10.948;2024-02-26T12:30:57;13.90;71.60
26541;DHT22;14206;50.202;10.948;2024-02-26T12:33:26;13.80;72.20
26541;DHT22;14206;50.202;10.948;2024-02-26T12:35:54;13.80;70.70
26541;DHT22;14206;50.202;10.948;2024-02-26T12:38:21;13.70;71.10
26541;DHT22;14206;50.202;10.948;2024-02-26T12:40:48;13.70;71.80
26541;DHT22;14206;50.202;10.948;2024-02-26T12:43:16;13.70;71.00
26541;DHT22;14206;50.202;10.948;2024-02-26T12:45:43;13.70;71.40
26541;DHT22;14206;50.202;10.948;2024-02-26T12:48:14;13.70;71.50
26541;DHT22;14206;50.202;10.948;2024-02-26T12:50:48;13.80;71.10
26541;DHT22;14206;50.202;10.948;2024-02-26T12:53:15;13.70;70.80
26541;DHT22;14206;50.202;10.948;2024-02-26T12:55:42;13.60;71.50
26541;DHT22;14206;50.202;10.948;2024-02-26T12:58:10;13.50;71.90
26541;DHT22;14206;50.202;10.948;2024-02-26T13:00:38;13.40;71.40
26541;DHT22;14206;50.202;10.948;2024-02-26T13:03:05;13.30;71.20
26541;DHT22;14206;50.202;10.948;2024-02-26T13:05:32;13.20;72.40
26541;DHT22;14206;50.202;10.948;2024-02-26T13:07:59;13.20;73.00
26541;DHT22;14206;50.202;10.948;2024-02-26T13:10:26;13.10;71.70
26541;DHT22;14206;50.202;10.948;2024-02-26T13:12:54;13.10;72.20
26541;DHT22;14206;50.202;10.948;2024-02-26T13:15:21;13.00;72.50
26541;DHT22;14206;50.202;10.948;2024-02-26T13:17:49;13.10;72.50
26541;DHT22;14206;50.202;10.948;2024-02-26T13:20:35;13.10;72.80
26541;DHT22;14206;50.202;10.948;2024-02-26T13:23:04;13.20;73.00
26541;DHT22;14206;50.202;10.948;2024-02-26T13:25:34;13.30;71.10
26541;DHT22;14206;50.202;10.948;2024-02-26T13:28:09;13.30;69.70
26541;DHT22;14206;50.202;10.948;2024-02-26T13:30:39;13.30;69.80
26541;DHT22;14206;50.202;10.948;2024-02-26T13:33:11;13.30;70.70
26541;DHT22;14206;50.202;10.948;2024-02-26T13:35:39;13.40;71.60
26541;DHT22;14206;50.202;10.948;2024-02-26T13:38:06;13.40;70.20
26541;DHT22;14206;50.202;10.948;2024-02-26T13:40:33;13.40;69.30
26541;DHT22;14206;50.202;10.948;2024-02-26T13:43:01;13.40;68.80
26541;DHT22;14206;50.202;10.948;2024-02-26T13:45:28;13.40;68.50
26541;DHT22;14206;50.202;10.948;2024-02-26T13:48:05;13.50;69.50
26541;DHT22;14206;50.202;10.948;2024-02-26T13:50:32;13.50;68.80
26541;DHT22;14206;50.202;10.948;2024-02-26T13:52:59;13.50;67.80
26541;DHT22;14206;50.202;10.948;2024-02-26T13:55:26;13.50;67.40
26541;DHT22;14206;50.202;10.948;2024-02-26T13:57:56;13.40;68.70
26541;DHT22;14206;50.202;10.948;2024-02-26T14:00:24;13.50;68.50
26541;DHT22;14206;50.202;10.948;2024-02-26T14:02:51;13.50;67.50
26541;DHT22;14206;50.202;10.948;2024-02-26T14:05:18;13.50;68.30
26541;DHT22;14206;50.202;10.948;2024-02-26T14:07:45;13.50;68.10
26541;DHT22;14206;50.202;10.948;2024-02-26T14:10:17;13.40;67.90
26541;DHT22;14206;50.202;10.948;2024-02-26T14:12:44;13.40;68.40
26541;DHT22;14206;50.202;10.948;2024-02-26T14:15:11;13.30;67.70
26541;DHT22;14206;50.202;10.948;2024-02-26T14:17:39;13.10;68.00
26541;DHT22;14206;50.202;10.948;2024-02-26T14:20:07;13.00;68.10
26541;DHT22;14206;50.202;10.948;2024-02-26T14:22:35;13.00;68.20
26541;DHT22;14206;50.202;10.948;2024-02-26T14:25:03;13.00;68.90
26541;DHT22;14206;50.202;10.948;2024-02-26T14:27:30;13.00;69.10
26541;DHT22;14206;50.202;10.948;2024-02-26T14:29:57;13.00;68.80
26541;DHT22;14206;50.202;10.948;2024-02-26T14:32:23;13.00;68.60
26541;DHT22;14206;50.202;10.948;2024-02-26T14:34:50;13.10;69.20
26541;DHT22;14206;50.202;10.948;2024-02-26T14:37:18;13.10;69.10
26541;DHT22;14206;50.202;10.948;2024-02-26T14:39:44;13.00;69.60
26541;DHT22;14206;50.202;10.948;2024-02-26T14:42:12;13.00;70.10
26541;DHT22;14206;50.202;10.948;2024-02-26T14:44:39;13.00;70.60
26541;DHT22;14206;50.202;10.948;2024-02-26T14:47:05;12.90;71.40
26541;DHT22;14206;50.202;10.948;2024-02-26T14:49:32;13.00;72.00
26541;DHT22;14206;50.202;10.948;2024-02-26T14:52:00;13.10;71.90
26541;DHT22;14206;50.202;10.948;2024-02-26T14:54:30;13.10;72.30
26541;DHT22;14206;50.202;10.948;2024-02-26T14:57:04;13.10;72.30
26541;DHT22;14206;50.202;10.948;2024-02-26T14:59:33;13.10;72.60
26541;DHT22;14206;50.202;10.948;2024-02-26T15:02:00;13.00;73.10
26541;DHT22;14206;50.202;10.948;2024-02-26T15:04:27;13.00;73.10
26541;DHT22;14206;50.202;10.948;2024-02-26T15:06:54;12.90;73.50
26541;DHT22;14206;50.202;10.948;2024-02-26T15:09:21;12.80;73.60
26541;DHT22;14206;50.202;10.948;2024-02-26T15:11:48;12.80;73.90
26541;DHT22;14206;50.202;10.948;2024-02-26T15:14:15;12.70;74.30
26541;DHT22;14206;50.202;10.948;2024-02-26T15:16:42;12.70;74.30
26541;DHT22;14206;50.202;10.948;2024-02-26T15:19:09;12.70;74.90
26541;DHT22;14206;50.202;10.948;2024-02-26T15:21:46;12.70;75.10
26541;DHT22;14206;50.202;10.948;2024-02-26T15:24:14;12.60;75.20
26541;DHT22;14206;50.202;10.948;2024-02-26T15:26:44;12.70;75.40
26541;DHT22;14206;50.202;10.948;2024-02-26T15:29:12;12.60;75.30
26541;DHT22;14206;50.202;10.948;2024-02-26T15:31:39;12.60;75.40